Portada
METAR-TAF:

METAR-TAF

Aeroports :

Nouméa La Tontouta, Nova Caledònia

latitud: 22-01S, longitud: 166-13E, altitud: 16 m

Observació

L'informe es va fer fa 36 minuts, a les 18:30 UTC
Vent 2 kt del Sud/Sud-Est
Temperatura 19°C
Humitat 83%
Pressió 1010 hPa
Visibilitat 10 km o més
sense núvols per sota de 1500 mi sense presència de cumulonimbus.

METAR: NWWW 141830Z AUTO 15002KT CAVOK 19/16 Q1010 NOSIG

Hora: 06:06 (19:06 UTC)

Pronòstic

L'informe es va fer fa 2 hores i 6 minuts, a les 17:00 UTC
Pronòstic vàlid del 14 a les 18 UTC al 15 a les 18 UTC
Vent 6 kt del Nord-Est
Visibilitat 10 km o més
Escasses núvols a una alçada de 6500 ft
Evolucionant progressivament
l' 14 a les 22 UTC al 14 a les 24 UTC
Vent 16 kt del Sud-Est

TAF: NWWW 141700Z 1418/1518 04006KT 9999 FEW065 BECMG 1422/1424 14016KT

Observacions i pronòstics meteorològics de més de 4000 aeroports (METAR i TAF).

Les estacions disponibles són els punts grocs i vermells al mapa.

Posi el ratolí al punt desitjat per veure el nom de l'estació.

Feu clic per veure les observacions i els pronòstics meteorològics.

Per canviar el mapa: feu clic els botons verds amb una creu de color negre per apropar; al botó verd amb un guió per allunyar la imatge; o en les fletxes verdes per a mapes adjacents.


METAR-TAF: